Time;durP1;ratioP1;P1;durP2;ratioP2;P2;SDS_P1;SDS_P2;PMS_P1;PMS_P2;Temp;Humidity;BMP_temperature;BMP_pressure;BME280_temperature;BME280_humidity;BME280_pressure;Samples;Min_cycle;Max_cycle;Signal;HPM_P1;HPM_P2
2022/08/19 00:01:31;;;;;;;9.48;5.72;;;17.80;99.90;;;;;;4919549;29;20067;-83
2022/08/19 00:03:59;;;;;;;11.55;5.88;;;17.80;99.90;;;;;;4915996;29;20055;-83
2022/08/19 00:06:26;;;;;;;11.23;7.50;;;17.80;99.90;;;;;;4928265;29;20388;-83
2022/08/19 00:08:52;;;;;;;7.93;7.13;;;17.80;99.90;;;;;;4918901;29;20192;-83
2022/08/19 00:11:19;;;;;;;8.63;6.75;;;17.80;99.90;;;;;;4904341;29;20082;-83
2022/08/19 00:13:48;;;;;;;10.25;6.47;;;17.70;99.90;;;;;;4938643;29;20059;-83
2022/08/19 00:16:15;;;;;;;8.35;7.28;;;17.70;99.90;;;;;;4923261;29;20058;-83
2022/08/19 00:18:41;;;;;;;9.45;8.32;;;17.70;99.90;;;;;;4922633;29;20039;-83
2022/08/19 00:21:07;;;;;;;8.80;7.90;;;17.70;99.90;;;;;;4922614;29;20135;-83
2022/08/19 00:23:34;;;;;;;8.77;7.63;;;17.60;99.90;;;;;;4921917;29;20054;-83
2022/08/19 00:26:00;;;;;;;10.45;8.60;;;17.60;99.90;;;;;;4922672;29;20412;-84
2022/08/19 00:28:26;;;;;;;9.93;8.35;;;17.60;99.90;;;;;;4922809;29;20043;-83
2022/08/19 00:30:52;;;;;;;11.10;8.20;;;17.50;99.90;;;;;;4923024;29;20081;-83
2022/08/19 00:33:19;;;;;;;9.27;8.32;;;17.50;99.90;;;;;;4922411;29;20047;-84
2022/08/19 00:35:45;;;;;;;11.43;8.48;;;17.50;99.90;;;;;;4922102;29;20440;-83
2022/08/19 00:38:10;;;;;;;9.00;7.82;;;17.50;99.90;;;;;;4937135;29;20039;-83
2022/08/19 00:40:36;;;;;;;10.23;8.85;;;17.50;99.90;;;;;;4922449;29;21787;-83
2022/08/19 00:43:08;;;;;;;13.75;8.40;;;17.50;99.90;;;;;;4922070;29;20047;-83
2022/08/19 00:45:35;;;;;;;9.25;8.20;;;17.40;99.90;;;;;;4934554;29;20044;-83
2022/08/19 00:48:04;;;;;;;9.60;8.32;;;17.40;99.90;;;;;;4903795;29;20095;-83
2022/08/19 00:50:30;;;;;;;10.55;8.10;;;17.40;99.90;;;;;;4920048;29;20040;-83
2022/08/19 00:52:56;;;;;;;10.55;8.13;;;17.40;99.90;;;;;;4917209;29;20066;-83
2022/08/19 00:55:25;;;;;;;10.25;8.38;;;17.40;99.90;;;;;;4906367;29;20046;-84
2022/08/19 00:58:13;;;;;;;12.10;8.60;;;17.40;99.90;;;;;;4937645;29;20044;-83
2022/08/19 01:00:39;;;;;;;9.93;7.82;;;17.30;99.90;;;;;;4937812;29;20035;-83
2022/08/19 01:03:07;;;;;;;8.93;7.68;;;17.20;99.90;;;;;;4924900;29;20127;-84
2022/08/19 01:05:34;;;;;;;9.30;7.70;;;17.30;99.90;;;;;;4937955;29;20047;-83
2022/08/19 01:08:02;;;;;;;11.27;8.40;;;17.30;99.90;;;;;;4926153;29;20052;-83
2022/08/19 01:10:32;;;;;;;9.30;8.40;;;17.30;99.90;;;;;;4931208;29;20134;-83
2022/08/19 01:13:00;;;;;;;9.82;7.78;;;17.20;99.90;;;;;;4922434;29;20451;-83
2022/08/19 01:15:32;;;;;;;8.75;7.70;;;17.20;99.90;;;;;;4937939;29;20047;-84
2022/08/19 01:18:01;;;;;;;9.00;7.97;;;17.20;99.90;;;;;;4937996;29;20388;-84
2022/08/19 01:20:27;;;;;;;10.27;8.07;;;17.20;99.90;;;;;;4918783;29;20052;-83
2022/08/19 01:22:56;;;;;;;10.25;8.43;;;17.20;99.90;;;;;;4904341;29;20511;-83
2022/08/19 01:25:30;;;;;;;10.55;7.57;;;17.10;99.90;;;;;;4924464;29;20079;-83
2022/08/19 01:27:56;;;;;;;8.82;7.93;;;17.10;99.90;;;;;;4921337;29;20091;-83
2022/08/19 01:30:27;;;;;;;12.30;7.95;;;17.10;99.90;;;;;;4921365;29;20130;-84
2022/08/19 01:32:54;;;;;;;8.73;7.85;;;17.10;99.90;;;;;;4921104;29;20058;-83
2022/08/19 01:35:23;;;;;;;9.80;7.47;;;17.10;99.90;;;;;;4934018;29;20085;-83
2022/08/19 01:37:55;;;;;;;8.50;7.70;;;17.00;99.90;;;;;;4928526;29;20048;-83
2022/08/19 01:40:23;;;;;;;9.65;7.88;;;17.00;99.90;;;;;;4921053;29;20039;-84
2022/08/19 01:42:50;;;;;;;9.55;7.93;;;17.00;99.90;;;;;;4936944;29;20440;-83
2022/08/19 01:45:17;;;;;;;9.95;8.65;;;17.00;99.90;;;;;;4937508;29;20047;-83
2022/08/19 01:47:43;;;;;;;11.02;8.45;;;17.00;99.90;;;;;;4937482;29;20049;-84
2022/08/19 01:50:11;;;;;;;10.00;8.52;;;16.90;99.90;;;;;;4921347;29;20035;-84
2022/08/19 01:52:42;;;;;;;9.50;8.50;;;16.90;99.90;;;;;;4937600;29;20126;-83
2022/08/19 01:55:12;;;;;;;9.90;8.10;;;16.90;99.90;;;;;;4921686;29;20043;-83
2022/08/19 01:57:40;;;;;;;10.00;8.63;;;16.90;99.90;;;;;;4923831;29;20500;-84
2022/08/19 02:00:11;;;;;;;10.65;8.77;;;16.90;99.90;;;;;;4935678;29;20055;-83
2022/08/19 02:02:37;;;;;;;9.13;8.18;;;16.80;99.90;;;;;;4959124;29;20043;-83
2022/08/19 02:05:03;;;;;;;13.77;9.48;;;16.80;99.90;;;;;;4951196;29;20076;-83
2022/08/19 02:07:29;;;;;;;10.15;8.77;;;16.80;99.90;;;;;;4915472;29;20444;-84
2022/08/19 02:09:55;;;;;;;9.93;8.85;;;16.80;99.90;;;;;;4905920;29;20044;-83
2022/08/19 02:12:21;;;;;;;14.27;9.85;;;16.80;99.90;;;;;;4937327;29;20060;-83
2022/08/19 02:14:47;;;;;;;13.35;10.00;;;16.80;99.90;;;;;;4937260;29;20039;-83
2022/08/19 02:17:13;;;;;;;10.75;9.65;;;16.70;99.90;;;;;;4936907;29;20035;-84
2022/08/19 02:19:38;;;;;;;10.68;9.52;;;16.70;99.90;;;;;;4935734;29;20660;-83
2022/08/19 02:22:05;;;;;;;13.52;9.98;;;16.70;99.90;;;;;;4937034;29;20392;-83
2022/08/19 02:24:31;;;;;;;11.95;9.02;;;16.70;99.90;;;;;;4936683;29;20099;-83
2022/08/19 02:26:58;;;;;;;10.93;9.82;;;16.70;99.90;;;;;;4936798;29;20494;-83
2022/08/19 02:29:24;;;;;;;12.80;10.30;;;16.70;99.90;;;;;;4921183;29;20055;-83
2022/08/19 02:31:50;;;;;;;11.15;9.68;;;16.70;99.90;;;;;;4935677;29;20043;-84
2022/08/19 02:34:16;;;;;;;11.52;9.80;;;16.60;99.90;;;;;;4931982;29;20040;-83
2022/08/19 02:36:42;;;;;;;11.35;10.02;;;16.60;99.90;;;;;;4905044;29;20043;-83
2022/08/19 02:39:08;;;;;;;12.18;9.57;;;16.60;99.90;;;;;;4905258;29;20505;-83
2022/08/19 02:41:34;;;;;;;12.90;10.15;;;16.60;99.90;;;;;;4904116;29;20094;-83
2022/08/19 02:44:02;;;;;;;10.25;8.88;;;16.60;99.90;;;;;;4919612;29;20052;-83
2022/08/19 02:46:31;;;;;;;11.93;9.75;;;16.60;99.90;;;;;;4907550;29;20071;-83
2022/08/19 02:49:01;;;;;;;11.35;9.55;;;16.50;99.90;;;;;;4937270;29;20048;-83
2022/08/19 02:51:30;;;;;;;12.13;10.20;;;16.50;99.90;;;;;;4921573;29;21074;-83
2022/08/19 02:53:56;;;;;;;11.43;10.20;;;16.50;99.90;;;;;;4936063;29;20133;-83
2022/08/19 02:56:24;;;;;;;13.70;9.98;;;16.50;99.90;;;;;;4916606;29;20139;-83
2022/08/19 02:58:49;;;;;;;11.75;10.02;;;16.50;99.90;;;;;;4920804;29;20119;-83
2022/08/19 03:01:28;;;;;;;11.88;10.43;;;16.50;99.90;;;;;;4919901;29;20071;-83
2022/08/19 03:03:55;;;;;;;13.80;11.00;;;16.50;99.90;;;;;;4918907;29;20122;-83
2022/08/19 03:06:22;;;;;;;10.75;9.60;;;16.50;99.90;;;;;;4919091;29;20086;-83
2022/08/19 03:08:49;;;;;;;11.73;10.52;;;16.40;99.90;;;;;;4935098;29;20392;-83
2022/08/19 03:11:24;;;;;;;12.02;10.80;;;16.40;99.90;;;;;;4919062;29;20048;-83
2022/08/19 03:13:50;;;;;;;13.60;10.43;;;16.40;99.90;;;;;;4934748;29;20069;-83
2022/08/19 03:16:17;;;;;;;12.18;10.88;;;16.40;99.90;;;;;;4916829;29;20285;-82
2022/08/19 03:18:43;;;;;;;11.95;10.65;;;16.30;99.90;;;;;;4916706;29;20166;-83
2022/08/19 03:21:14;;;;;;;12.27;10.38;;;16.30;99.90;;;;;;4900279;29;20440;-83
2022/08/19 03:23:39;;;;;;;13.73;10.93;;;16.30;99.90;;;;;;4934746;29;20062;-83
2022/08/19 03:26:06;;;;;;;13.05;10.35;;;16.30;99.90;;;;;;4918390;29;20048;-83
2022/08/19 03:28:33;;;;;;;12.18;10.70;;;16.30;99.90;;;;;;4917866;29;20090;-83
2022/08/19 03:31:03;;;;;;;14.63;11.23;;;16.20;99.90;;;;;;4915472;29;20051;-83
2022/08/19 03:33:30;;;;;;;12.75;11.43;;;16.20;99.90;;;;;;4933215;29;20075;-83
2022/08/19 03:36:20;;;;;;;12.85;11.30;;;16.20;99.90;;;;;;4918814;29;20039;-83
2022/08/19 03:38:54;;;;;;;14.43;11.23;;;16.20;99.90;;;;;;4915887;29;20072;-83
2022/08/19 03:41:41;;;;;;;12.82;10.60;;;16.20;99.90;;;;;;4933954;29;20043;-83
2022/08/19 03:44:08;;;;;;;12.88;10.90;;;16.20;99.90;;;;;;4907012;29;20062;-83
2022/08/19 03:46:34;;;;;;;11.38;10.27;;;16.20;99.90;;;;;;4928120;29;20075;-83
2022/08/19 03:49:08;;;;;;;15.50;11.02;;;16.20;99.90;;;;;;4920506;29;20063;-83
2022/08/19 03:51:37;;;;;;;14.90;12.30;;;16.20;99.90;;;;;;4930774;29;20111;-83
2022/08/19 03:54:06;;;;;;;12.23;10.73;;;16.20;99.90;;;;;;4937144;29;20039;-84
2022/08/19 03:56:35;;;;;;;14.20;10.85;;;16.20;99.90;;;;;;4938069;29;20468;-83
2022/08/19 03:59:00;;;;;;;15.52;11.93;;;16.20;99.90;;;;;;4939346;29;20433;-83
2022/08/19 04:01:28;;;;;;;14.75;11.70;;;16.20;99.90;;;;;;4926252;29;20122;-83
2022/08/19 04:03:56;;;;;;;13.85;12.45;;;16.10;99.90;;;;;;4922983;29;20118;-83
2022/08/19 04:06:27;;;;;;;13.80;12.23;;;16.10;99.90;;;;;;4922618;29;20078;-83
2022/08/19 04:08:54;;;;;;;14.98;12.05;;;16.20;99.90;;;;;;4926557;29;20480;-83
2022/08/19 04:11:24;;;;;;;13.40;11.68;;;16.10;99.90;;;;;;4938822;29;20450;-83
2022/08/19 04:13:52;;;;;;;12.75;11.45;;;16.10;99.90;;;;;;4934340;29;20126;-83
2022/08/19 04:16:20;;;;;;;13.65;11.88;;;16.00;99.90;;;;;;4919120;29;20032;-84
2022/08/19 04:18:47;;;;;;;13.30;11.77;;;16.00;99.90;;;;;;4907223;29;20517;-83
2022/08/19 04:21:18;;;;;;;13.18;11.77;;;16.00;99.90;;;;;;4920329;29;20118;-83
2022/08/19 04:23:45;;;;;;;12.70;11.40;;;16.00;99.90;;;;;;4904811;29;20048;-83
2022/08/19 04:26:20;;;;;;;15.07;11.93;;;16.00;99.90;;;;;;4919954;29;20098;-83
2022/08/19 04:28:46;;;;;;;15.37;11.87;;;16.00;99.90;;;;;;4905135;29;20050;-83
2022/08/19 04:31:21;;;;;;;12.13;10.82;;;16.00;99.90;;;;;;4908935;29;20050;-83
2022/08/19 04:33:47;;;;;;;12.95;11.00;;;16.00;99.90;;;;;;4924529;29;20044;-83
2022/08/19 04:36:22;;;;;;;13.27;11.63;;;15.90;99.90;;;;;;4936608;29;20092;-83
2022/08/19 04:38:49;;;;;;;14.07;11.70;;;16.00;99.90;;;;;;4933194;29;20459;-83
2022/08/19 04:43:59;;;;;;;15.20;11.35;;;15.90;99.90;;;;;;4906726;29;20494;-83
2022/08/19 04:46:25;;;;;;;12.13;10.48;;;15.90;99.90;;;;;;4900017;29;20119;-83
2022/08/19 04:48:56;;;;;;;11.38;9.90;;;15.90;99.90;;;;;;4939357;29;20039;-83
2022/08/19 04:51:23;;;;;;;12.05;10.38;;;15.90;99.90;;;;;;4908435;29;20046;-83
2022/08/19 04:53:48;;;;;;;12.10;10.45;;;15.80;99.90;;;;;;4923823;29;20048;-83
2022/08/19 04:56:19;;;;;;;12.23;10.73;;;15.90;99.90;;;;;;4891497;29;20099;-83
2022/08/19 04:58:45;;;;;;;12.30;10.18;;;15.90;99.90;;;;;;4936705;29;20043;-83
2022/08/19 05:01:18;;;;;;;13.50;10.77;;;15.90;99.90;;;;;;4919708;29;20484;-83
2022/08/19 05:03:43;;;;;;;13.25;11.20;;;15.90;99.90;;;;;;4921794;29;20389;-83
2022/08/19 05:06:12;;;;;;;12.73;10.77;;;15.90;99.90;;;;;;4906284;29;20055;-83
2022/08/19 05:08:42;;;;;;;12.35;10.98;;;15.90;99.90;;;;;;4937535;29;20118;-83
2022/08/19 05:11:16;;;;;;;12.38;11.05;;;15.90;99.90;;;;;;4916234;29;20044;-83
2022/08/19 05:13:46;;;;;;;13.52;11.73;;;15.90;99.90;;;;;;4932799;29;20051;-83
2022/08/19 05:16:14;;;;;;;12.52;11.25;;;15.90;99.90;;;;;;4922994;29;20035;-83
2022/08/19 05:24:14;;;;;;;13.63;11.02;;;15.90;99.90;;;;;;4938405;29;20496;-83
2022/08/19 05:26:42;;;;;;;12.85;11.02;;;15.90;99.90;;;;;;4937307;29;20042;-83
2022/08/19 05:29:08;;;;;;;12.75;11.27;;;15.90;99.90;;;;;;4937469;29;20051;-83
2022/08/19 05:31:35;;;;;;;12.23;10.95;;;15.90;99.90;;;;;;4918518;29;20684;-83
2022/08/19 05:34:03;;;;;;;12.48;11.15;;;15.90;99.90;;;;;;4937515;29;20054;-83
2022/08/19 05:36:35;;;;;;;13.25;11.80;;;16.00;99.90;;;;;;4937819;29;20403;-83
2022/08/19 05:39:02;;;;;;;16.42;13.35;;;16.00;99.90;;;;;;4922595;29;20067;-83
2022/08/19 05:41:30;;;;;;;17.70;13.43;;;16.00;99.90;;;;;;4922415;29;20108;-83
2022/08/19 05:43:57;;;;;;;14.38;12.18;;;16.10;99.90;;;;;;4935962;29;20112;-83
2022/08/19 05:46:23;;;;;;;16.25;13.30;;;16.10;99.90;;;;;;4928693;29;20107;-83
2022/08/19 05:48:49;;;;;;;16.35;13.13;;;16.10;99.90;;;;;;4937117;29;20054;-84
2022/08/19 05:51:15;;;;;;;16.92;14.02;;;16.20;99.90;;;;;;4929102;29;20428;-86
2022/08/19 05:53:42;;;;;;;17.60;14.02;;;16.20;99.90;;;;;;4936931;29;20511;-85
2022/08/19 05:56:10;;;;;;;16.08;13.35;;;16.20;99.90;;;;;;4936506;29;20042;-83
2022/08/19 05:58:37;;;;;;;15.25;13.45;;;16.30;99.90;;;;;;4920513;29;20042;-83
2022/08/19 06:01:15;;;;;;;18.63;13.50;;;16.40;99.90;;;;;;4935979;29;20052;-83
2022/08/19 06:03:41;;;;;;;16.75;13.63;;;16.40;99.90;;;;;;4936909;29;20114;-82
2022/08/19 06:06:10;;;;;;;18.63;13.32;;;16.50;99.90;;;;;;4920737;29;20409;-85
2022/08/19 06:08:38;;;;;;;19.10;14.13;;;16.50;99.90;;;;;;4936168;29;20050;-83
2022/08/19 06:11:18;;;;;;;20.48;15.05;;;16.60;99.90;;;;;;4921318;29;20555;-82
2022/08/19 06:13:47;;;;;;;18.80;14.32;;;16.60;99.90;;;;;;4922394;29;20039;-82
2022/08/19 06:16:20;;;;;;;18.33;14.55;;;16.70;99.90;;;;;;4923871;29;20404;-82
2022/08/19 06:18:46;;;;;;;20.25;15.18;;;16.80;99.90;;;;;;4936937;29;20043;-82
2022/08/19 06:21:12;;;;;;;17.27;15.27;;;16.80;99.90;;;;;;4936061;29;20511;-82
2022/08/19 06:23:39;;;;;;;17.73;14.57;;;16.90;99.90;;;;;;4920100;29;20046;-82
2022/08/19 06:26:05;;;;;;;18.00;14.38;;;17.00;99.90;;;;;;4920414;29;20054;-83
2022/08/19 06:28:30;;;;;;;17.90;15.07;;;17.10;99.90;;;;;;4935952;29;20039;-83
2022/08/19 06:30:56;;;;;;;22.10;16.27;;;17.20;99.90;;;;;;4918605;29;20048;-84
2022/08/19 06:33:22;;;;;;;17.73;14.43;;;17.20;99.90;;;;;;4935184;29;20552;-83
2022/08/19 06:35:47;;;;;;;17.60;15.18;;;17.30;99.90;;;;;;4920631;29;20070;-85
2022/08/19 06:38:13;;;;;;;18.80;15.60;;;17.40;99.90;;;;;;4921037;29;20087;-84
2022/08/19 06:40:39;;;;;;;19.63;15.95;;;17.40;99.90;;;;;;4921456;29;20130;-85
2022/08/19 06:43:04;;;;;;;21.42;15.85;;;17.50;99.90;;;;;;4904972;29;20047;-83
2022/08/19 06:45:30;;;;;;;18.15;15.00;;;17.60;99.90;;;;;;4935349;29;20058;-84
2022/08/19 06:47:57;;;;;;;15.85;14.15;;;17.70;99.90;;;;;;4900713;29;20054;-84
2022/08/19 06:50:24;;;;;;;18.92;14.93;;;18.10;99.90;;;;;;4921709;29;20064;-85
2022/08/19 06:52:50;;;;;;;15.77;13.02;;;18.50;99.90;;;;;;4922326;29;20095;-85
2022/08/19 06:55:15;;;;;;;15.27;13.60;;;18.90;99.90;;;;;;4937534;29;20491;-85
2022/08/19 06:57:42;;;;;;;15.45;13.73;;;19.40;99.90;;;;;;4890284;29;20044;-85
2022/08/19 07:00:15;;;;;;;18.13;14.77;;;19.80;99.90;;;;;;4905766;29;20075;-85
2022/08/19 07:02:42;;;;;;;16.48;13.75;;;20.10;99.90;;;;;;4921835;29;20130;-84
2022/08/19 07:05:08;;;;;;;17.23;13.90;;;20.50;99.90;;;;;;4920488;29;20047;-85
2022/08/19 07:07:34;;;;;;;15.85;13.60;;;20.80;99.90;;;;;;4936241;29;20040;-86
2022/08/19 07:10:00;;;;;;;14.75;13.27;;;21.10;99.90;;;;;;4936139;29;20461;-85
2022/08/19 07:12:31;;;;;;;19.15;13.63;;;21.40;99.90;;;;;;4935405;29;20506;-83
2022/08/19 07:14:57;;;;;;;13.70;11.75;;;21.60;99.90;;;;;;4909948;29;20130;-82
2022/08/19 07:17:23;;;;;;;14.98;13.40;;;21.70;99.90;;;;;;4919693;29;20107;-83
2022/08/19 07:19:50;;;;;;;13.85;12.35;;;21.80;99.90;;;;;;4904329;29;20051;-82
2022/08/19 07:22:17;;;;;;;14.23;12.82;;;22.00;99.90;;;;;;4934763;29;20044;-82
2022/08/19 07:24:43;;;;;;;14.60;12.07;;;22.10;99.90;;;;;;4936076;29;20578;-82
2022/08/19 07:27:09;;;;;;;15.07;12.95;;;22.20;99.90;;;;;;4935518;29;20071;-82
2022/08/19 07:29:36;;;;;;;14.00;12.50;;;22.30;99.90;;;;;;4935701;29;20419;-82
2022/08/19 07:32:03;;;;;;;13.30;11.90;;;22.40;99.90;;;;;;4935470;29;20046;-83
2022/08/19 07:34:30;;;;;;;13.82;12.52;;;22.50;99.90;;;;;;4935180;29;20071;-82
2022/08/19 07:36:57;;;;;;;14.45;12.93;;;22.60;99.90;;;;;;4919436;29;20484;-82
2022/08/19 07:39:26;;;;;;;14.05;12.60;;;22.70;99.90;;;;;;4929694;29;20055;-83
2022/08/19 07:41:53;;;;;;;14.50;11.88;;;22.80;99.90;;;;;;4930936;29;20036;-82
2022/08/19 07:44:20;;;;;;;14.18;12.85;;;22.90;99.90;;;;;;4934472;29;20497;-83
2022/08/19 07:46:49;;;;;;;14.10;11.63;;;23.00;99.90;;;;;;4934743;29;20043;-83
2022/08/19 07:49:18;;;;;;;14.95;13.10;;;23.10;99.90;;;;;;4934441;29;20051;-82
2022/08/19 07:51:58;;;;;;;15.55;13.95;;;23.20;99.90;;;;;;4933914;29;20079;-82
2022/08/19 07:54:25;;;;;;;15.48;13.93;;;23.20;99.90;;;;;;4918915;29;20048;-82
2022/08/19 07:56:52;;;;;;;15.30;13.82;;;23.30;99.90;;;;;;4915841;29;20044;-82
2022/08/19 07:59:20;;;;;;;16.98;14.57;;;23.30;99.90;;;;;;4916063;29;20629;-83
2022/08/19 08:01:46;;;;;;;15.07;13.52;;;23.30;99.90;;;;;;4916581;29;20048;-83
2022/08/19 08:09:43;;;;;;;17.85;16.15;;;23.30;99.90;;;;;;4921351;29;20047;-83
2022/08/19 08:12:40;;;;;;;18.88;17.02;;;23.20;99.90;;;;;;4929736;29;20076;-84
2022/08/19 08:15:18;;;;;;;18.55;16.65;;;23.10;99.90;;;;;;4893782;29;20417;-84
2022/08/19 08:17:45;;;;;;;18.92;16.92;;;23.10;99.90;;;;;;4935073;29;20044;-83
2022/08/19 08:20:11;;;;;;;19.95;17.75;;;22.90;99.90;;;;;;4920039;29;20044;-83
2022/08/19 08:25:23;;;;;;;17.90;16.10;;;22.80;99.90;;;;;;4921860;29;20508;-83
2022/08/19 08:27:49;;;;;;;18.77;16.58;;;22.70;99.90;;;;;;4919976;29;20051;-84
2022/08/19 08:30:19;;;;;;;18.55;16.20;;;22.70;99.90;;;;;;4928466;29;20044;-83
2022/08/19 08:32:45;;;;;;;20.17;16.85;;;22.60;99.90;;;;;;4956695;29;20071;-83
2022/08/19 08:35:16;;;;;;;17.85;15.55;;;22.60;99.90;;;;;;4959453;29;20107;-84
2022/08/19 08:37:43;;;;;;;18.48;15.98;;;22.50;99.90;;;;;;4942944;29;20044;-83
2022/08/19 08:40:23;;;;;;;19.55;15.48;;;22.50;99.90;;;;;;4941915;29;20046;-84
2022/08/19 08:43:18;;;;;;;17.42;15.32;;;22.60;99.90;;;;;;4941153;29;20079;-83
2022/08/19 08:46:01;;;;;;;16.88;14.68;;;22.60;99.90;;;;;;4939511;29;20060;-84
2022/08/19 08:48:52;;;;;;;20.88;18.73;;;22.60;99.90;;;;;;4940363;29;20121;-84
2022/08/19 08:51:41;;;;;;;16.88;15.07;;;22.60;99.90;;;;;;4923668;29;20075;-83
2022/08/19 08:54:12;;;;;;;19.02;16.95;;;22.50;99.90;;;;;;4939035;29;20541;-84
2022/08/19 08:56:50;;;;;;;17.30;15.45;;;22.50;99.90;;;;;;4938633;29;20048;-84
2022/08/19 08:59:24;;;;;;;18.92;16.33;;;22.50;99.90;;;;;;4923916;29;20404;-84
2022/08/19 09:01:50;;;;;;;17.17;14.60;;;22.50;99.90;;;;;;4938479;29;20082;-85
2022/08/19 09:04:16;;;;;;;18.48;16.48;;;22.40;99.90;;;;;;4939605;29;20044;-84
2022/08/19 09:07:15;;;;;;;18.58;15.68;;;22.40;99.90;;;;;;4910143;29;20568;-84
2022/08/19 09:09:46;;;;;;;18.35;15.88;;;22.50;99.90;;;;;;4891274;29;20056;-83
2022/08/19 09:12:17;;;;;;;19.95;17.08;;;22.40;99.90;;;;;;4903024;29;20051;-83
2022/08/19 09:14:47;;;;;;;19.50;15.55;;;22.50;99.90;;;;;;4919100;29;20075;-84
2022/08/19 09:17:14;;;;;;;23.58;17.05;;;22.50;99.90;;;;;;4937196;29;20039;-84
2022/08/19 09:19:52;;;;;;;18.08;16.05;;;22.50;99.90;;;;;;4938367;29;20063;-84
2022/08/19 09:22:21;;;;;;;19.35;16.17;;;22.50;99.90;;;;;;4922244;29;20656;-84
2022/08/19 09:24:48;;;;;;;19.63;15.82;;;22.60;99.90;;;;;;4922680;29;20511;-84
2022/08/19 09:27:14;;;;;;;22.40;16.65;;;22.60;99.90;;;;;;4907291;29;20051;-84
2022/08/19 09:29:39;;;;;;;17.55;15.65;;;22.70;99.90;;;;;;4922209;29;20039;-84
2022/08/19 09:32:05;;;;;;;20.70;17.38;;;22.80;99.90;;;;;;4927918;29;20051;-84
2022/08/19 09:34:32;;;;;;;20.73;16.42;;;22.80;99.90;;;;;;4887799;29;20642;-84
2022/08/19 09:36:59;;;;;;;19.15;16.45;;;23.00;99.90;;;;;;4921101;29;20050;-84
2022/08/19 09:39:25;;;;;;;20.55;16.80;;;23.10;99.90;;;;;;4921895;29;20043;-84
2022/08/19 09:41:52;;;;;;;17.98;15.32;;;23.10;99.90;;;;;;4937190;29;20039;-84
2022/08/19 09:44:20;;;;;;;17.75;15.85;;;23.20;99.90;;;;;;4936957;29;20062;-84
2022/08/19 09:46:49;;;;;;;17.95;16.02;;;23.30;99.90;;;;;;4921911;29;20055;-84
2022/08/19 09:49:17;;;;;;;18.90;15.95;;;23.30;99.90;;;;;;4938283;29;20074;-84
2022/08/19 09:51:43;;;;;;;18.13;16.15;;;23.30;99.90;;;;;;4921716;29;20039;-84
2022/08/19 09:54:09;;;;;;;17.88;15.77;;;23.30;99.90;;;;;;4922629;29;20048;-84
2022/08/19 09:56:34;;;;;;;17.65;15.30;;;23.30;99.90;;;;;;4921112;29;20508;-84
2022/08/19 09:59:03;;;;;;;22.40;16.75;;;23.30;99.90;;;;;;4921582;29;20044;-84
2022/08/19 10:01:30;;;;;;;22.52;17.58;;;23.30;99.90;;;;;;4937795;29;20488;-84
2022/08/19 10:03:58;;;;;;;22.45;17.65;;;23.30;99.90;;;;;;4936931;29;20051;-84
2022/08/19 10:06:31;;;;;;;22.23;19.92;;;23.30;99.90;;;;;;4937963;29;20576;-83
2022/08/19 10:08:57;;;;;;;24.85;19.13;;;23.50;99.90;;;;;;4937774;29;20483;-84
2022/08/19 10:11:22;;;;;;;24.38;19.80;;;23.50;99.90;;;;;;4904846;29;20044;-84
2022/08/19 10:13:48;;;;;;;21.88;19.45;;;23.50;99.90;;;;;;4920827;29;20043;-83
2022/08/19 10:16:18;;;;;;;23.10;20.40;;;23.50;99.90;;;;;;4935990;29;20044;-84
2022/08/19 10:18:45;;;;;;;24.80;21.50;;;23.50;99.90;;;;;;4920193;29;20046;-85
2022/08/19 10:21:20;;;;;;;24.88;21.88;;;23.50;99.90;;;;;;4936222;29;20035;-84
2022/08/19 10:23:49;;;;;;;27.48;22.92;;;23.50;99.90;;;;;;4935979;29;20087;-84
2022/08/19 10:26:24;;;;;;;23.95;21.40;;;23.40;99.90;;;;;;4921240;29;20492;-84
2022/08/19 10:28:50;;;;;;;21.20;19.00;;;23.40;99.90;;;;;;4922219;29;20051;-84
2022/08/19 10:31:22;;;;;;;20.60;18.60;;;23.30;99.90;;;;;;4938077;29;20044;-84
2022/08/19 10:33:49;;;;;;;20.55;18.38;;;23.40;99.90;;;;;;4937732;29;20054;-84
2022/08/19 10:36:19;;;;;;;21.33;19.23;;;23.40;99.90;;;;;;4907472;29;20040;-84
2022/08/19 10:38:51;;;;;;;21.73;19.48;;;23.40;99.90;;;;;;4937787;29;20124;-84
2022/08/19 10:41:22;;;;;;;20.92;16.42;;;23.40;99.90;;;;;;4936859;29;20035;-84
2022/08/19 10:43:52;;;;;;;21.90;19.30;;;23.40;99.90;;;;;;4920487;29;20047;-84
2022/08/19 10:46:18;;;;;;;21.92;19.55;;;23.50;99.90;;;;;;4936290;29;20531;-84
2022/08/19 10:48:44;;;;;;;17.67;15.55;;;23.40;99.90;;;;;;4920567;29;20040;-84
2022/08/19 10:53:56;;;;;;;23.42;21.00;;;23.50;99.90;;;;;;4936662;29;20404;-84
2022/08/19 10:59:06;;;;;;;23.23;20.65;;;23.50;99.90;;;;;;4903949;29;20055;-84
2022/08/19 11:01:34;;;;;;;23.52;21.13;;;23.50;99.90;;;;;;4901873;29;20040;-84
2022/08/19 11:04:04;;;;;;;22.13;19.80;;;23.50;99.90;;;;;;4917458;29;20044;-84
2022/08/19 11:06:33;;;;;;;21.17;19.00;;;23.50;99.90;;;;;;4917072;29;20076;-84
2022/08/19 11:08:59;;;;;;;20.38;17.48;;;23.50;99.90;;;;;;4901643;29;20052;-84
2022/08/19 11:11:26;;;;;;;24.33;21.50;;;23.60;99.90;;;;;;4935333;29;20043;-84
2022/08/19 11:13:52;;;;;;;24.63;21.20;;;23.60;99.90;;;;;;4936408;29;20488;-84
2022/08/19 11:16:23;;;;;;;23.48;20.80;;;23.60;99.90;;;;;;4920326;29;20040;-84
2022/08/19 11:18:52;;;;;;;24.52;21.92;;;23.60;99.90;;;;;;4921352;29;20039;-84
2022/08/19 11:21:24;;;;;;;24.02;21.25;;;23.60;99.90;;;;;;4936752;29;20035;-84
2022/08/19 11:23:52;;;;;;;25.08;21.95;;;23.60;99.90;;;;;;4921848;29;20464;-84
2022/08/19 11:26:19;;;;;;;27.48;22.38;;;23.60;99.90;;;;;;4920558;29;20055;-84
2022/08/19 11:28:46;;;;;;;24.15;20.40;;;23.70;99.90;;;;;;4905364;29;20094;-84
2022/08/19 11:31:14;;;;;;;24.88;20.17;;;23.70;99.90;;;;;;4920138;29;20043;-84
2022/08/19 11:33:40;;;;;;;20.60;17.38;;;23.80;99.90;;;;;;4920312;29;20043;-83
2022/08/19 11:36:07;;;;;;;18.38;16.27;;;23.80;99.90;;;;;;4936768;29;20040;-83
2022/08/19 11:38:35;;;;;;;22.52;19.75;;;23.80;99.90;;;;;;4916774;29;20041;-85
2022/08/19 11:41:04;;;;;;;26.08;20.98;;;23.80;99.90;;;;;;4901380;29;20492;-83
2022/08/19 11:43:30;;;;;;;21.30;17.77;;;23.90;99.90;;;;;;4917408;29;20048;-82
2022/08/19 11:45:57;;;;;;;21.23;18.20;;;24.00;99.90;;;;;;4917000;29;20055;-83
2022/08/19 11:48:23;;;;;;;24.17;21.55;;;24.00;99.90;;;;;;4930246;29;20466;-84
2022/08/19 11:50:50;;;;;;;19.83;17.00;;;24.10;99.90;;;;;;4936615;29;20120;-84
2022/08/19 11:53:18;;;;;;;22.27;17.77;;;24.10;99.90;;;;;;4936100;29;20051;-84
2022/08/19 11:55:44;;;;;;;22.73;17.55;;;24.10;99.90;;;;;;4919977;29;20067;-85
2022/08/19 11:58:11;;;;;;;26.85;16.65;;;24.20;99.90;;;;;;4901426;29;20092;-84
2022/08/19 12:00:39;;;;;;;20.40;14.82;;;24.30;99.90;;;;;;4902795;29;20051;-84
2022/08/19 12:03:04;;;;;;;16.52;12.27;;;24.40;99.90;;;;;;4901524;29;20572;-84
2022/08/19 12:05:30;;;;;;;16.02;12.27;;;24.40;99.90;;;;;;4906397;29;20063;-84
2022/08/19 12:07:56;;;;;;;18.08;14.35;;;24.40;99.90;;;;;;4938673;29;20095;-84
2022/08/19 12:10:22;;;;;;;18.90;16.52;;;24.40;99.90;;;;;;4923967;29;20040;-84
2022/08/19 12:12:48;;;;;;;18.42;15.82;;;24.40;99.90;;;;;;4938917;29;20051;-84
2022/08/19 12:15:14;;;;;;;19.85;16.50;;;24.50;99.90;;;;;;4922823;29;20048;-84
2022/08/19 12:17:41;;;;;;;15.68;13.50;;;24.50;99.90;;;;;;4923315;29;20499;-84
2022/08/19 12:20:10;;;;;;;18.13;12.68;;;24.60;99.90;;;;;;4938505;29;20090;-82
2022/08/19 12:22:36;;;;;;;15.68;12.80;;;24.60;99.90;;;;;;4922933;29;20047;-84
2022/08/19 12:25:04;;;;;;;15.43;12.80;;;24.70;99.90;;;;;;4923801;29;20049;-84
2022/08/19 12:27:30;;;;;;;14.70;11.27;;;24.80;99.90;;;;;;4938541;29;20043;-84
2022/08/19 12:29:56;;;;;;;9.55;8.55;;;24.80;99.90;;;;;;4927711;29;20043;-83
2022/08/19 12:32:24;;;;;;;13.25;10.27;;;24.90;99.90;;;;;;4919636;29;20095;-85
2022/08/19 12:34:50;;;;;;;15.43;12.68;;;25.00;99.90;;;;;;4919616;29;20055;-84
2022/08/19 12:37:16;;;;;;;16.65;13.10;;;25.10;99.90;;;;;;4904603;29;20040;-84
2022/08/19 12:39:43;;;;;;;13.77;10.82;;;25.20;99.90;;;;;;4903973;29;20074;-84
2022/08/19 12:42:10;;;;;;;11.23;9.48;;;25.40;99.90;;;;;;4887692;29;20040;-83
2022/08/19 12:44:37;;;;;;;12.07;10.05;;;25.50;99.90;;;;;;4914890;29;20056;-84
2022/08/19 12:47:04;;;;;;;12.70;10.77;;;25.50;99.90;;;;;;4938533;29;20090;-83
2022/08/19 12:49:33;;;;;;;12.00;10.38;;;25.50;99.90;;;;;;4922517;29;20052;-86
2022/08/19 12:52:02;;;;;;;14.45;11.57;;;25.60;99.90;;;;;;4922559;29;20051;-84
2022/08/19 12:54:30;;;;;;;12.48;10.40;;;25.70;99.90;;;;;;4937429;29;20524;-84
2022/08/19 12:56:56;;;;;;;9.43;8.43;;;26.00;99.90;;;;;;4921829;29;20054;-84
2022/08/19 12:59:22;;;;;;;10.10;9.00;;;26.40;99.90;;;;;;4923481;29;20412;-84